Time,TemperatureF,DewpointF,PressureIn,WindDirection,WindDirectionDegrees,WindSpeedMPH,WindSpeedGustMPH,Humidity,HourlyPrecipIn,Conditions,Clouds,dailyrainin,SoftwareType,DateUTC
2013-03-17 00:00:00,57.4,49.2,29.80,NNE,26,0.0,2.2,74,0.00,,,0.00,VWS V13.01,2013-03-17 05:00:00,
2013-03-17 00:05:00,57.7,49.1,29.80,NNE,26,2.2,2.7,73,0.00,,,0.00,VWS V13.01,2013-03-17 05:05:00,
2013-03-17 00:10:00,58.3,49.3,29.80,North,359,0.0,2.2,72,0.00,,,0.00,VWS V13.01,2013-03-17 05:10:00,
2013-03-17 00:14:00,58.8,48.3,29.80,NNW,343,2.2,2.7,68,0.00,,,0.00,VWS V13.01,2013-03-17 05:14:00,
2013-03-17 00:19:00,59.5,48.6,29.80,NNW,343,0.0,0.0,67,0.00,,,0.00,VWS V13.01,2013-03-17 05:19:00,
2013-03-17 00:24:00,59.9,48.9,29.80,NE,47,2.7,2.7,67,0.00,,,0.00,VWS V13.01,2013-03-17 05:24:00,
2013-03-17 00:29:00,59.9,49.3,29.80,NNE,18,0.0,0.0,68,0.00,,,0.00,VWS V13.01,2013-03-17 05:29:00,
2013-03-17 00:34:00,59.5,50.1,29.80,NE,38,2.7,2.7,71,0.00,,,0.00,VWS V13.01,2013-03-17 05:34:00,
2013-03-17 00:39:00,59.2,49.8,29.80,NE,39,2.2,2.2,71,0.00,,,0.00,VWS V13.01,2013-03-17 05:39:00,
2013-03-17 00:44:00,59.0,49.6,29.80,North,356,0.0,0.0,71,0.00,,,0.00,VWS V13.01,2013-03-17 05:44:00,
2013-03-17 00:49:00,59.0,48.8,29.80,NNE,15,0.0,0.0,69,0.00,,,0.00,VWS V13.01,2013-03-17 05:49:00,
2013-03-17 00:54:00,59.5,49.7,29.80,North,9,2.7,2.7,70,0.00,,,0.00,VWS V13.01,2013-03-17 05:54:00,
2013-03-17 00:59:00,59.9,49.3,29.80,North,358,2.7,2.7,68,0.00,,,0.00,VWS V13.01,2013-03-17 05:59:00,
2013-03-17 01:04:00,60.2,48.4,29.80,NNE,30,3.6,4.0,65,0.00,,,0.00,VWS V13.01,2013-03-17 06:04:00,
2013-03-17 01:09:00,61.1,48.5,29.80,NNE,30,4.0,5.4,63,0.00,,,0.00,VWS V13.01,2013-03-17 06:09:00,
2013-03-17 01:14:00,61.5,49.2,29.80,NE,52,4.5,4.5,64,0.00,,,0.00,VWS V13.01,2013-03-17 06:14:00,
2013-03-17 01:19:00,61.5,48.8,29.80,NE,49,2.7,3.1,63,0.00,,,0.00,VWS V13.01,2013-03-17 06:19:00,
2013-03-17 01:24:00,61.3,47.3,29.80,NE,40,6.3,6.7,60,0.00,,,0.00,VWS V13.01,2013-03-17 06:24:00,
2013-03-17 01:29:00,62.8,46.4,29.80,NNE,24,5.8,8.7,55,0.00,,,0.00,VWS V13.01,2013-03-17 06:29:00,
2013-03-17 01:34:00,62.6,45.7,29.80,North,11,4.0,5.8,54,0.00,,,0.00,VWS V13.01,2013-03-17 06:34:00,
2013-03-17 01:39:00,62.4,46.0,29.80,NE,37,4.0,5.4,55,0.00,,,0.00,VWS V13.01,2013-03-17 06:39:00,
2013-03-17 01:44:00,62.0,45.7,29.78,NE,46,4.9,5.4,55,0.00,,,0.00,VWS V13.01,2013-03-17 06:44:00,
2013-03-17 01:49:00,61.9,45.5,29.78,NNE,18,5.4,5.4,55,0.00,,,0.00,VWS V13.01,2013-03-17 06:49:00,
2013-03-17 01:54:00,61.7,44.9,29.78,NNE,33,4.5,6.3,54,0.00,,,0.00,VWS V13.01,2013-03-17 06:54:00,
2013-03-17 01:59:00,61.5,44.7,29.78,NE,42,7.6,7.6,54,0.00,,,0.00,VWS V13.01,2013-03-17 06:59:00,
2013-03-17 02:04:00,61.1,44.4,29.78,NNE,33,4.5,4.9,54,0.00,,,0.00,VWS V13.01,2013-03-17 07:04:00,
2013-03-17 02:09:00,61.0,44.2,29.78,NE,34,3.1,4.0,54,0.00,,,0.00,VWS V13.01,2013-03-17 07:09:00,
2013-03-17 02:14:00,60.8,44.5,29.78,NNE,27,4.0,4.0,55,0.00,,,0.00,VWS V13.01,2013-03-17 07:14:00,
2013-03-17 02:19:00,60.6,44.4,29.78,NNE,23,3.6,3.6,55,0.00,,,0.00,VWS V13.01,2013-03-17 07:19:00,
2013-03-17 02:24:00,60.4,44.2,29.78,NE,42,3.6,4.0,55,0.00,,,0.00,VWS V13.01,2013-03-17 07:24:00,
2013-03-17 02:29:00,60.4,44.7,29.78,NE,45,4.0,4.0,56,0.00,,,0.00,VWS V13.01,2013-03-17 07:29:00,
2013-03-17 02:34:00,60.2,44.5,29.78,NE,56,3.1,4.0,56,0.00,,,0.00,VWS V13.01,2013-03-17 07:34:00,
2013-03-17 02:39:00,60.2,44.0,29.78,ENE,63,4.0,4.0,55,0.00,,,0.00,VWS V13.01,2013-03-17 07:39:00,
2013-03-17 02:44:00,60.4,44.2,29.78,ENE,65,4.0,4.0,55,0.00,,,0.00,VWS V13.01,2013-03-17 07:44:00,
2013-03-17 02:49:00,60.6,43.9,29.78,NE,54,3.6,3.6,54,0.00,,,0.00,VWS V13.01,2013-03-17 07:49:00,
2013-03-17 02:54:00,60.6,43.9,29.78,East,91,4.5,4.5,54,0.00,,,0.00,VWS V13.01,2013-03-17 07:54:00,
2013-03-17 02:59:00,60.6,43.9,29.78,ENE,70,4.9,4.9,54,0.00,,,0.00,VWS V13.01,2013-03-17 07:59:00,
2013-03-17 03:04:00,60.4,43.7,29.78,ENE,68,3.1,4.9,54,0.00,,,0.00,VWS V13.01,2013-03-17 08:04:00,
2013-03-17 03:09:00,60.2,43.5,29.78,ENE,68,4.0,4.0,54,0.00,,,0.00,VWS V13.01,2013-03-17 08:09:00,
2013-03-17 03:14:00,60.1,43.4,29.78,ENE,65,5.4,5.8,54,0.00,,,0.00,VWS V13.01,2013-03-17 08:14:00,
2013-03-17 03:19:00,60.1,43.4,29.78,NE,40,5.4,5.4,54,0.00,,,0.00,VWS V13.01,2013-03-17 08:19:00,
2013-03-17 03:24:00,59.9,43.2,29.78,ENE,78,4.0,5.4,54,0.00,,,0.00,VWS V13.01,2013-03-17 08:24:00,
2013-03-17 03:29:00,59.7,43.5,29.78,ENE,63,4.0,4.0,55,0.00,,,0.00,VWS V13.01,2013-03-17 08:29:00,
2013-03-17 03:34:00,59.7,43.5,29.78,NE,38,5.8,5.8,55,0.00,,,0.00,VWS V13.01,2013-03-17 08:34:00,
2013-03-17 03:39:00,59.7,43.5,29.78,NE,38,3.6,4.0,55,0.00,,,0.00,VWS V13.01,2013-03-17 08:39:00,
2013-03-17 03:44:00,59.3,43.2,29.78,ENE,60,6.3,6.3,55,0.00,,,0.00,VWS V13.01,2013-03-17 08:44:00,
2013-03-17 03:49:00,59.3,43.2,29.78,NE,52,5.8,5.8,55,0.00,,,0.00,VWS V13.01,2013-03-17 08:49:00,
2013-03-17 03:54:00,59.3,43.2,29.78,East,80,3.1,5.8,55,0.00,,,0.00,VWS V13.01,2013-03-17 08:54:00,
2013-03-17 03:59:00,59.3,43.7,29.78,NE,41,4.9,6.3,56,0.00,,,0.00,VWS V13.01,2013-03-17 08:59:00,
2013-03-17 04:04:00,59.2,43.5,29.78,NE,50,5.4,6.3,56,0.00,,,0.00,VWS V13.01,2013-03-17 09:04:00,
2013-03-17 04:09:00,59.2,43.5,29.78,ENE,77,4.0,5.4,56,0.00,,,0.00,VWS V13.01,2013-03-17 09:09:00,
2013-03-17 04:14:00,59.0,43.3,29.78,NNE,21,5.8,8.1,56,0.00,,,0.00,VWS V13.01,2013-03-17 09:14:00,
2013-03-17 04:19:00,58.8,43.2,29.78,NE,51,6.3,6.3,56,0.00,,,0.00,VWS V13.01,2013-03-17 09:19:00,
2013-03-17 04:24:00,58.6,43.5,29.78,NE,51,6.3,6.3,57,0.00,,,0.00,VWS V13.01,2013-03-17 09:24:00,
2013-03-17 04:29:00,58.4,43.3,29.78,NE,51,6.3,6.3,57,0.00,,,0.00,VWS V13.01,2013-03-17 09:29:00,
2013-03-17 04:34:00,58.3,43.1,29.78,NE,45,4.9,5.8,57,0.00,,,0.00,VWS V13.01,2013-03-17 09:34:00,
2013-03-17 04:39:00,58.1,42.9,29.78,NE,46,4.0,4.0,57,0.00,,,0.00,VWS V13.01,2013-03-17 09:39:00,
2013-03-17 04:44:00,57.9,43.2,29.78,NE,47,5.4,5.4,58,0.00,,,0.00,VWS V13.01,2013-03-17 09:44:00,
2013-03-17 04:49:00,57.9,43.7,29.78,ENE,61,4.0,4.0,59,0.00,,,0.00,VWS V13.01,2013-03-17 09:49:00,
2013-03-17 04:54:00,57.5,43.3,29.78,NNE,30,8.3,8.3,59,0.00,,,0.00,VWS V13.01,2013-03-17 09:54:00,
2013-03-17 04:59:00,57.5,43.3,29.78,ENE,69,3.6,5.8,59,0.00,,,0.00,VWS V13.01,2013-03-17 09:59:00,
2013-03-17 05:04:00,57.4,43.2,29.78,ENE,78,5.4,9.6,59,0.00,,,0.00,VWS V13.01,2013-03-17 10:04:00,
2013-03-17 05:09:00,57.2,43.0,29.78,NE,42,7.6,7.6,59,0.00,,,0.00,VWS V13.01,2013-03-17 10:09:00,
2013-03-17 05:14:00,57.2,43.0,29.78,NE,46,3.6,4.9,59,0.00,,,0.00,VWS V13.01,2013-03-17 10:14:00,
2013-03-17 05:19:00,57.0,43.3,29.78,NE,46,5.4,5.4,60,0.00,,,0.00,VWS V13.01,2013-03-17 10:19:00,
2013-03-17 05:24:00,56.8,43.5,29.78,ENE,71,4.9,4.9,61,0.00,,,0.00,VWS V13.01,2013-03-17 10:24:00,
2013-03-17 05:29:00,56.6,43.4,29.78,NE,55,4.9,4.9,61,0.00,,,0.00,VWS V13.01,2013-03-17 10:29:00,
2013-03-17 05:34:00,56.6,43.4,29.78,ENE,73,4.0,6.3,61,0.00,,,0.00,VWS V13.01,2013-03-17 10:34:00,
2013-03-17 05:39:00,56.5,43.2,29.78,NE,49,5.8,6.3,61,0.00,,,0.00,VWS V13.01,2013-03-17 10:39:00,
2013-03-17 05:44:00,56.5,43.2,29.78,NE,51,3.6,7.6,61,0.00,,,0.00,VWS V13.01,2013-03-17 10:44:00,
2013-03-17 05:49:00,56.3,43.0,29.78,ENE,65,6.3,6.3,61,0.00,,,0.00,VWS V13.01,2013-03-17 10:49:00,
2013-03-17 05:54:00,56.3,43.4,29.78,East,87,4.0,4.0,62,0.00,,,0.00,VWS V13.01,2013-03-17 10:54:00,
2013-03-17 05:59:00,56.3,43.4,29.78,East,87,4.9,4.9,62,0.00,,,0.00,VWS V13.01,2013-03-17 10:59:00,
2013-03-17 06:04:00,56.1,43.3,29.78,ENE,64,8.1,8.1,62,0.00,,,0.00,VWS V13.01,2013-03-17 11:04:00,
2013-03-17 06:09:00,56.1,43.7,29.78,ENE,67,3.6,4.0,63,0.00,,,0.00,VWS V13.01,2013-03-17 11:09:00,
2013-03-17 06:14:00,56.1,43.3,29.78,ENE,72,4.0,6.3,62,0.00,,,0.00,VWS V13.01,2013-03-17 11:14:00,
2013-03-17 06:19:00,56.1,43.7,29.78,ENE,72,3.6,3.6,63,0.00,,,0.00,VWS V13.01,2013-03-17 11:19:00,
2013-03-17 06:24:00,56.1,43.7,29.78,ENE,78,7.6,7.6,63,0.00,,,0.00,VWS V13.01,2013-03-17 11:24:00,
2013-03-17 06:29:00,55.9,43.5,29.80,ENE,61,6.3,6.3,63,0.00,,,0.00,VWS V13.01,2013-03-17 11:29:00,
2013-03-17 06:34:00,55.9,43.5,29.80,ENE,57,4.0,4.0,63,0.00,,,0.00,VWS V13.01,2013-03-17 11:34:00,
2013-03-17 06:39:00,55.9,43.5,29.80,ENE,69,4.9,4.9,63,0.00,,,0.00,VWS V13.01,2013-03-17 11:39:00,
2013-03-17 06:44:00,55.7,43.3,29.80,ENE,60,4.9,5.8,63,0.00,,,0.00,VWS V13.01,2013-03-17 11:44:00,
2013-03-17 06:49:00,55.7,43.3,29.80,ENE,57,4.0,4.9,63,0.00,,,0.00,VWS V13.01,2013-03-17 11:49:00,
2013-03-17 06:54:00,55.7,43.8,29.80,ENE,60,3.6,4.0,64,0.00,,,0.00,VWS V13.01,2013-03-17 11:54:00,
2013-03-17 06:59:00,55.6,43.6,29.80,ENE,74,3.6,5.4,64,0.00,,,0.00,VWS V13.01,2013-03-17 11:59:00,
2013-03-17 07:04:00,55.6,43.6,29.80,ENE,68,4.9,4.9,64,0.00,,,0.00,VWS V13.01,2013-03-17 12:04:00,
2013-03-17 07:09:00,55.6,43.6,29.80,NE,51,4.0,7.6,64,0.00,,,0.00,VWS V13.01,2013-03-17 12:09:00,
2013-03-17 07:14:00,55.6,43.6,29.80,ENE,71,4.0,5.8,64,0.00,,,0.00,VWS V13.01,2013-03-17 12:14:00,
2013-03-17 07:19:00,55.4,43.4,29.80,ENE,64,7.2,7.6,64,0.00,,,0.00,VWS V13.01,2013-03-17 12:19:00,
2013-03-17 07:24:00,55.2,43.2,29.80,East,84,5.8,5.8,64,0.00,,,0.00,VWS V13.01,2013-03-17 12:24:00,
2013-03-17 07:29:00,55.2,43.2,29.80,NE,49,4.5,5.8,64,0.00,,,0.00,VWS V13.01,2013-03-17 12:29:00,
2013-03-17 07:34:00,55.2,43.2,29.80,NE,52,7.6,7.6,64,0.00,,,0.00,VWS V13.01,2013-03-17 12:34:00,
2013-03-17 07:39:00,55.0,43.5,29.80,East,79,3.6,5.4,65,0.00,,,0.00,VWS V13.01,2013-03-17 12:39:00,
2013-03-17 07:44:00,55.0,43.5,29.80,East,80,3.6,6.3,65,0.00,,,0.00,VWS V13.01,2013-03-17 12:44:00,
2013-03-17 07:49:00,55.0,43.5,29.80,ENE,58,5.8,7.6,65,0.00,,,0.00,VWS V13.01,2013-03-17 12:49:00,
2013-03-17 07:54:00,54.8,43.3,29.80,ENE,70,6.3,7.6,65,0.00,,,0.00,VWS V13.01,2013-03-17 12:54:00,
2013-03-17 07:59:00,54.8,43.3,29.80,ENE,66,5.4,5.8,65,0.00,,,0.00,VWS V13.01,2013-03-17 12:59:00,
2013-03-17 08:04:00,54.8,43.3,29.80,NE,44,3.6,5.8,65,0.00,,,0.00,VWS V13.01,2013-03-17 13:04:00,
2013-03-17 08:09:00,54.8,43.3,29.80,NE,44,5.8,6.3,65,0.00,,,0.00,VWS V13.01,2013-03-17 13:09:00,
2013-03-17 08:14:00,54.8,43.3,29.80,ENE,74,4.0,4.0,65,0.00,,,0.00,VWS V13.01,2013-03-17 13:14:00,
2013-03-17 08:19:00,54.8,43.7,29.80,ENE,70,3.6,4.0,66,0.00,,,0.00,VWS V13.01,2013-03-17 13:19:00,
2013-03-17 08:24:00,54.8,43.3,29.80,NE,38,5.4,5.4,65,0.00,,,0.00,VWS V13.01,2013-03-17 13:24:00,
2013-03-17 08:29:00,54.8,43.3,29.83,NNE,16,7.6,7.6,65,0.00,,,0.00,VWS V13.01,2013-03-17 13:29:00,
2013-03-17 08:34:00,54.3,42.8,29.83,NE,51,8.7,10.5,65,0.00,,,0.00,VWS V13.01,2013-03-17 13:34:00,
2013-03-17 08:39:00,53.4,42.7,29.83,NNE,23,10.5,10.5,67,0.00,,,0.00,VWS V13.01,2013-03-17 13:39:00,
2013-03-17 08:43:00,52.3,45.0,29.83,NE,41,5.8,5.8,76,0.00,,,0.00,VWS V13.01,2013-03-17 13:43:00,
2013-03-17 08:48:00,50.9,46.2,29.83,NNW,346,5.4,7.6,84,0.00,,,0.00,VWS V13.01,2013-03-17 13:48:00,
2013-03-17 08:54:00,50.2,45.8,29.83,NNE,27,8.7,8.7,85,0.00,,,0.00,VWS V13.01,2013-03-17 13:54:00,
2013-03-17 08:58:00,49.8,46.4,29.83,NNE,31,4.0,6.3,88,0.00,,,0.00,VWS V13.01,2013-03-17 13:58:00,
2013-03-17 09:04:00,49.4,46.0,29.83,NE,38,5.8,8.1,88,0.00,,,0.00,VWS V13.01,2013-03-17 14:04:00,
2013-03-17 09:09:00,49.1,45.4,29.83,NNE,33,8.7,8.7,87,0.00,,,0.00,VWS V13.01,2013-03-17 14:09:00,
2013-03-17 09:14:00,49.1,46.0,29.83,NE,35,6.3,7.6,89,0.00,,,0.00,VWS V13.01,2013-03-17 14:14:00,
2013-03-17 09:18:00,48.9,46.1,29.83,NNE,26,5.8,5.8,90,0.00,,,0.00,VWS V13.01,2013-03-17 14:18:00,
2013-03-17 09:23:00,48.7,46.2,29.83,NNE,33,4.0,6.3,91,0.00,,,0.00,VWS V13.01,2013-03-17 14:23:00,
2013-03-17 09:28:00,48.5,46.3,29.83,NNE,29,5.8,6.3,92,0.00,,,0.00,VWS V13.01,2013-03-17 14:28:00,
2013-03-17 09:33:00,48.4,46.2,29.83,ENE,58,3.6,3.6,92,0.00,,,0.00,VWS V13.01,2013-03-17 14:33:00,
2013-03-17 09:38:00,48.2,46.0,29.83,NE,49,3.1,4.0,92,0.00,,,0.00,VWS V13.01,2013-03-17 14:38:00,
2013-03-17 09:43:00,48.0,45.8,29.83,NE,38,5.8,5.8,92,0.00,,,0.00,VWS V13.01,2013-03-17 14:43:00,
2013-03-17 09:48:00,47.8,45.3,29.83,NE,49,7.6,8.7,91,0.00,,,0.00,VWS V13.01,2013-03-17 14:48:00,
2013-03-17 09:53:00,47.5,44.7,29.83,East,79,5.8,6.3,90,0.00,,,0.00,VWS V13.01,2013-03-17 14:53:00,
2013-03-17 09:58:00,47.3,44.5,29.83,NE,42,7.6,7.6,90,0.00,,,0.00,VWS V13.01,2013-03-17 14:58:00,
2013-03-17 10:03:00,47.1,44.3,29.83,NNE,31,5.8,8.1,90,0.00,,,0.00,VWS V13.01,2013-03-17 15:03:00,
2013-03-17 10:08:00,46.9,44.2,29.83,NE,48,6.3,8.1,90,0.00,,,0.00,VWS V13.01,2013-03-17 15:08:00,
2013-03-17 10:13:00,46.7,44.3,29.83,ENE,65,6.3,6.3,91,0.00,,,0.00,VWS V13.01,2013-03-17 15:13:00,
2013-03-17 10:18:00,46.7,44.5,29.83,ENE,71,5.8,5.8,92,0.00,,,0.00,VWS V13.01,2013-03-17 15:18:00,
2013-03-17 10:23:00,46.4,43.9,29.83,NE,53,5.8,6.3,91,0.00,,,0.00,VWS V13.01,2013-03-17 15:23:00,
2013-03-17 10:28:00,46.4,43.9,29.86,NE,41,6.7,6.7,91,0.00,,,0.00,VWS V13.01,2013-03-17 15:28:00,
2013-03-17 10:33:00,46.4,43.9,29.86,ENE,60,6.7,6.7,91,0.00,,,0.00,VWS V13.01,2013-03-17 15:33:00,
2013-03-17 10:38:00,46.2,44.0,29.86,NE,40,5.8,6.7,92,0.00,,,0.00,VWS V13.01,2013-03-17 15:38:00,
2013-03-17 10:43:00,46.2,44.6,29.86,ENE,58,4.0,4.0,94,0.00,,,0.00,VWS V13.01,2013-03-17 15:43:00,
2013-03-17 10:48:00,46.2,44.8,29.86,ENE,58,3.6,4.0,95,0.00,,,0.00,VWS V13.01,2013-03-17 15:48:00,
2013-03-17 10:53:00,46.2,44.8,29.86,ENE,71,5.4,5.4,95,0.00,,,0.00,VWS V13.01,2013-03-17 15:53:00,
2013-03-17 10:58:00,46.0,44.7,29.86,NE,49,5.8,8.1,95,0.00,,,0.00,VWS V13.01,2013-03-17 15:58:00,
2013-03-17 11:03:00,46.0,44.7,29.86,ENE,77,8.1,8.1,95,0.00,,,0.00,VWS V13.01,2013-03-17 16:03:00,
2013-03-17 11:08:00,45.8,44.5,29.86,NE,45,7.6,8.3,95,0.00,,,0.00,VWS V13.01,2013-03-17 16:08:00,
2013-03-17 11:13:00,45.8,44.8,29.86,ENE,57,6.3,6.3,96,0.00,,,0.00,VWS V13.01,2013-03-17 16:13:00,
2013-03-17 11:18:00,45.7,44.6,29.86,ENE,67,4.9,8.3,96,0.00,,,0.00,VWS V13.01,2013-03-17 16:18:00,
2013-03-17 11:23:00,45.7,44.9,29.86,NE,42,4.9,5.4,97,0.00,,,0.00,VWS V13.01,2013-03-17 16:23:00,
2013-03-17 11:29:00,45.7,45.1,29.83,NNE,25,3.1,5.4,98,0.00,,,0.00,VWS V13.01,2013-03-17 16:29:00,
2013-03-17 11:34:00,45.7,45.4,29.83,NNE,33,4.0,7.2,99,0.00,,,0.00,VWS V13.01,2013-03-17 16:34:00,
2013-03-17 11:39:00,45.8,45.8,29.83,ENE,62,5.8,5.8,100,0.00,,,0.00,VWS V13.01,2013-03-17 16:39:00,
2013-03-17 11:44:00,45.7,45.7,29.83,NE,55,6.3,6.3,100,0.00,,,0.00,VWS V13.01,2013-03-17 16:44:00,
2013-03-17 11:49:00,45.7,45.4,29.83,NE,43,4.0,5.4,99,0.00,,,0.00,VWS V13.01,2013-03-17 16:49:00,
2013-03-17 11:54:00,45.3,44.5,29.83,NE,43,7.6,8.7,97,0.00,,,0.00,VWS V13.01,2013-03-17 16:54:00,
2013-03-17 11:59:00,45.3,44.0,29.83,ENE,67,7.6,8.1,95,0.00,,,0.00,VWS V13.01,2013-03-17 16:59:00,
2013-03-17 12:04:00,45.1,43.5,29.83,ENE,58,5.4,6.3,94,0.00,,,0.00,VWS V13.01,2013-03-17 17:04:00,
2013-03-17 12:09:00,45.1,43.8,29.83,ENE,65,3.1,6.3,95,0.00,,,0.00,VWS V13.01,2013-03-17 17:09:00,
2013-03-17 12:14:00,45.1,43.8,29.83,NE,56,5.8,6.3,95,0.00,,,0.00,VWS V13.01,2013-03-17 17:14:00,
2013-03-17 12:19:00,45.1,43.8,29.83,NNE,24,6.3,6.3,95,0.00,,,0.00,VWS V13.01,2013-03-17 17:19:00,
2013-03-17 12:24:00,45.1,44.0,29.83,NE,42,6.3,6.3,96,0.00,,,0.00,VWS V13.01,2013-03-17 17:24:00,
2013-03-17 12:29:00,45.1,44.0,29.83,NE,51,6.3,7.6,96,0.00,,,0.00,VWS V13.01,2013-03-17 17:29:00,
2013-03-17 12:34:00,45.1,43.8,29.83,ENE,59,5.4,5.8,95,0.00,,,0.00,VWS V13.01,2013-03-17 17:34:00,
2013-03-17 12:39:00,44.9,43.3,29.83,NE,55,5.8,6.3,94,0.00,,,0.00,VWS V13.01,2013-03-17 17:39:00,
2013-03-17 12:44:00,44.9,43.3,29.83,ENE,66,5.4,5.4,94,0.00,,,0.00,VWS V13.01,2013-03-17 17:44:00,
2013-03-17 12:49:00,45.1,43.8,29.83,NE,46,7.2,7.2,95,0.00,,,0.00,VWS V13.01,2013-03-17 17:49:00,
2013-03-17 12:53:00,45.1,42.9,29.83,ENE,65,8.7,10.5,92,0.00,,,0.00,VWS V13.01,2013-03-17 17:53:00,
2013-03-17 12:58:00,45.1,42.7,29.80,NE,54,5.8,6.3,91,0.00,,,0.00,VWS V13.01,2013-03-17 17:58:00,
2013-03-17 13:03:00,45.3,42.5,29.80,ENE,68,4.9,5.4,90,0.00,,,0.00,VWS V13.01,2013-03-17 18:03:00,
2013-03-17 13:08:00,45.1,41.5,29.80,NE,54,7.6,7.6,87,0.00,,,0.00,VWS V13.01,2013-03-17 18:08:00,
2013-03-17 13:13:00,45.3,42.3,29.80,NE,42,5.8,6.3,89,0.00,,,0.00,VWS V13.01,2013-03-17 18:13:00,
2013-03-17 13:18:00,45.3,42.0,29.80,NE,54,5.8,7.6,88,0.00,,,0.00,VWS V13.01,2013-03-17 18:18:00,
2013-03-17 13:23:00,45.5,42.1,29.80,ENE,77,5.4,6.3,88,0.00,,,0.00,VWS V13.01,2013-03-17 18:23:00,
2013-03-17 13:28:00,45.7,42.9,29.80,NE,49,3.6,4.0,90,0.00,,,0.00,VWS V13.01,2013-03-17 18:28:00,
2013-03-17 13:33:00,45.7,42.3,29.80,NNE,12,3.1,6.3,88,0.00,,,0.00,VWS V13.01,2013-03-17 18:33:00,
2013-03-17 13:38:00,45.7,41.4,29.80,East,84,10.1,10.5,85,0.00,,,0.00,VWS V13.01,2013-03-17 18:38:00,
2013-03-17 13:43:00,45.8,41.9,29.80,East,89,5.8,5.8,86,0.00,,,0.00,VWS V13.01,2013-03-17 18:43:00,
2013-03-17 13:48:00,45.8,41.9,29.80,ENE,67,8.3,8.3,86,0.00,,,0.00,VWS V13.01,2013-03-17 18:48:00,
2013-03-17 13:53:00,45.8,41.6,29.80,East,95,10.5,10.5,85,0.00,,,0.00,VWS V13.01,2013-03-17 18:53:00,
2013-03-17 13:58:00,45.7,41.4,29.80,NE,51,4.9,5.4,85,0.00,,,0.00,VWS V13.01,2013-03-17 18:58:00,
2013-03-17 14:03:00,45.7,42.0,29.80,NE,40,3.6,4.9,87,0.00,,,0.00,VWS V13.01,2013-03-17 19:03:00,
2013-03-17 14:08:00,45.7,41.7,29.80,ENE,61,3.1,3.1,86,0.00,,,0.00,VWS V13.01,2013-03-17 19:08:00,
2013-03-17 14:13:00,45.7,41.7,29.78,ENE,60,5.8,5.8,86,0.00,,,0.00,VWS V13.01,2013-03-17 19:13:00,
2013-03-17 14:18:00,45.5,41.8,29.78,ENE,67,7.2,7.2,87,0.00,,,0.00,VWS V13.01,2013-03-17 19:18:00,
2013-03-17 14:23:00,45.3,42.0,29.78,ENE,73,3.6,3.6,88,0.00,,,0.00,VWS V13.01,2013-03-17 19:23:00,
2013-03-17 14:28:00,45.3,42.3,29.78,SE,125,3.6,5.4,89,0.00,,,0.00,VWS V13.01,2013-03-17 19:28:00,
2013-03-17 14:34:00,44.9,42.2,29.78,East,89,5.8,5.8,90,0.00,,,0.00,VWS V13.01,2013-03-17 19:34:00,
2013-03-17 14:39:00,44.8,42.6,29.78,ENE,75,5.4,5.4,92,0.00,,,0.00,VWS V13.01,2013-03-17 19:39:00,
2013-03-17 14:44:00,44.6,42.7,29.78,ENE,77,4.0,4.0,93,0.00,,,0.00,VWS V13.01,2013-03-17 19:44:00,
2013-03-17 14:49:00,44.6,43.0,29.78,ENE,60,6.3,6.7,94,0.00,,,0.00,VWS V13.01,2013-03-17 19:49:00,
2013-03-17 14:54:00,44.6,43.2,29.78,East,79,7.6,10.5,95,0.00,,,0.00,VWS V13.01,2013-03-17 19:54:00,
2013-03-17 14:59:00,44.4,43.1,29.75,NE,44,2.7,3.1,95,0.00,,,0.00,VWS V13.01,2013-03-17 19:59:00,
2013-03-17 15:04:00,44.6,43.5,29.75,ENE,58,8.3,8.7,96,0.00,,,0.00,VWS V13.01,2013-03-17 20:04:00,
2013-03-17 15:09:00,44.4,43.3,29.75,East,79,5.4,5.4,96,0.00,,,0.00,VWS V13.01,2013-03-17 20:09:00,
2013-03-17 15:14:00,44.4,43.3,29.75,ENE,68,6.3,6.3,96,0.00,,,0.00,VWS V13.01,2013-03-17 20:14:00,
2013-03-17 15:19:00,44.2,43.2,29.75,ENE,71,3.6,3.6,96,0.00,,,0.00,VWS V13.01,2013-03-17 20:19:00,
2013-03-17 15:24:00,44.0,43.0,29.75,ENE,75,4.9,6.3,96,0.00,,,0.00,VWS V13.01,2013-03-17 20:24:00,
2013-03-17 15:29:00,44.0,43.0,29.75,ENE,76,5.4,5.4,96,0.00,,,0.00,VWS V13.01,2013-03-17 20:29:00,
2013-03-17 15:34:00,43.9,42.8,29.75,ENE,78,4.9,6.3,96,0.00,,,0.00,VWS V13.01,2013-03-17 20:34:00,
2013-03-17 15:39:00,43.9,43.1,29.75,NNE,31,4.0,5.4,97,0.00,,,0.00,VWS V13.01,2013-03-17 20:39:00,
2013-03-17 15:44:00,43.7,42.9,29.75,ENE,66,4.0,8.1,97,0.04,,,0.04,VWS V13.01,2013-03-17 20:44:00,
2013-03-17 15:49:00,43.7,42.9,29.75,ENE,63,3.6,6.3,97,0.04,,,0.04,VWS V13.01,2013-03-17 20:49:00,
2013-03-17 15:53:00,43.9,43.3,29.75,NE,50,5.8,5.8,98,0.04,,,0.04,VWS V13.01,2013-03-17 20:53:00,
2013-03-17 15:58:00,43.7,42.9,29.75,ENE,64,2.7,5.8,97,0.04,,,0.04,VWS V13.01,2013-03-17 20:58:00,
2013-03-17 16:03:00,43.9,43.6,29.75,ENE,65,5.4,6.3,99,0.04,,,0.04,VWS V13.01,2013-03-17 21:03:00,
2013-03-17 16:08:00,43.9,43.6,29.75,ENE,78,5.4,6.3,99,0.04,,,0.04,VWS V13.01,2013-03-17 21:08:00,
2013-03-17 16:13:00,43.9,43.9,29.72,NE,53,5.4,5.4,100,0.04,,,0.04,VWS V13.01,2013-03-17 21:13:00,
2013-03-17 16:18:00,43.9,43.9,29.72,NE,46,5.4,8.1,100,0.04,,,0.04,VWS V13.01,2013-03-17 21:18:00,
2013-03-17 16:23:00,43.9,43.9,29.72,ENE,77,5.8,6.3,100,0.04,,,0.04,VWS V13.01,2013-03-17 21:23:00,
2013-03-17 16:28:00,43.9,43.9,29.72,ENE,66,6.3,6.3,100,0.04,,,0.04,VWS V13.01,2013-03-17 21:28:00,
2013-03-17 16:33:00,44.0,44.0,29.72,ENE,58,6.3,6.3,100,0.04,,,0.04,VWS V13.01,2013-03-17 21:33:00,
2013-03-17 16:38:00,44.0,44.0,29.72,NE,48,3.6,6.3,100,0.04,,,0.04,VWS V13.01,2013-03-17 21:38:00,
2013-03-17 16:43:00,44.0,44.0,29.72,NE,41,8.1,8.1,100,0.00,,,0.04,VWS V13.01,2013-03-17 21:43:00,
2013-03-17 16:48:00,44.0,43.5,29.72,ENE,65,5.4,5.4,98,0.00,,,0.04,VWS V13.01,2013-03-17 21:48:00,
2013-03-17 16:53:00,44.0,43.2,29.72,ENE,73,3.1,4.9,97,0.00,,,0.04,VWS V13.01,2013-03-17 21:53:00,
2013-03-17 16:58:00,44.2,43.4,29.72,ENE,75,4.0,5.4,97,0.00,,,0.04,VWS V13.01,2013-03-17 21:58:00,
2013-03-17 17:03:00,44.0,43.0,29.72,East,99,7.6,7.6,96,0.00,,,0.04,VWS V13.01,2013-03-17 22:03:00,
2013-03-17 17:08:00,44.2,42.9,29.72,ENE,68,6.3,6.3,95,0.00,,,0.04,VWS V13.01,2013-03-17 22:08:00,
2013-03-17 17:13:00,44.2,42.9,29.72,East,90,5.8,11.0,95,0.00,,,0.04,VWS V13.01,2013-03-17 22:13:00,
2013-03-17 17:18:00,44.2,42.6,29.72,East,93,3.1,4.9,94,0.00,,,0.04,VWS V13.01,2013-03-17 22:18:00,
2013-03-17 17:23:00,44.0,42.2,29.72,NE,55,6.3,7.6,93,0.00,,,0.04,VWS V13.01,2013-03-17 22:23:00,
2013-03-17 17:28:00,44.2,42.6,29.72,East,82,7.6,7.6,94,0.00,,,0.04,VWS V13.01,2013-03-17 22:28:00,
2013-03-17 17:33:00,44.2,42.6,29.72,NE,50,5.8,5.8,94,0.00,,,0.04,VWS V13.01,2013-03-17 22:33:00,
2013-03-17 17:38:00,44.2,42.6,29.72,ENE,77,5.8,6.3,94,0.00,,,0.04,VWS V13.01,2013-03-17 22:38:00,
2013-03-17 17:43:00,44.2,42.3,29.69,ENE,69,5.8,6.3,93,0.00,,,0.04,VWS V13.01,2013-03-17 22:43:00,
2013-03-17 17:48:00,44.4,42.8,29.69,ENE,57,3.6,4.9,94,0.00,,,0.04,VWS V13.01,2013-03-17 22:48:00,
2013-03-17 17:53:00,44.4,42.8,29.69,NNE,29,5.8,6.3,94,0.00,,,0.04,VWS V13.01,2013-03-17 22:53:00,
2013-03-17 17:58:00,44.4,42.5,29.69,East,86,5.4,5.4,93,0.00,,,0.04,VWS V13.01,2013-03-17 22:58:00,
2013-03-17 18:03:00,44.2,42.3,29.69,ESE,111,8.7,8.7,93,0.00,,,0.04,VWS V13.01,2013-03-17 23:03:00,
2013-03-17 18:08:00,44.2,42.3,29.69,NE,48,3.6,5.4,93,0.00,,,0.04,VWS V13.01,2013-03-17 23:08:00,
2013-03-17 18:13:00,44.0,42.4,29.69,NE,43,4.0,5.4,94,0.00,,,0.04,VWS V13.01,2013-03-17 23:13:00,
2013-03-17 18:18:00,43.9,42.5,29.69,ENE,58,5.4,5.4,95,0.00,,,0.04,VWS V13.01,2013-03-17 23:18:00,
2013-03-17 18:23:00,43.9,42.5,29.69,East,92,4.5,5.8,95,0.00,,,0.04,VWS V13.01,2013-03-17 23:23:00,
2013-03-17 18:28:00,43.9,42.5,29.72,ENE,57,6.3,6.3,95,0.00,,,0.04,VWS V13.01,2013-03-17 23:28:00,
2013-03-17 18:33:00,43.9,42.5,29.72,NE,36,4.0,5.8,95,0.00,,,0.04,VWS V13.01,2013-03-17 23:33:00,
2013-03-17 18:38:00,43.9,42.5,29.72,ENE,69,4.0,4.0,95,0.00,,,0.04,VWS V13.01,2013-03-17 23:38:00,
2013-03-17 18:43:00,44.0,43.0,29.72,ENE,62,5.8,5.8,96,0.00,,,0.04,VWS V13.01,2013-03-17 23:43:00,
2013-03-17 18:48:00,44.0,42.7,29.72,NE,36,2.7,3.1,95,0.00,,,0.04,VWS V13.01,2013-03-17 23:48:00,
2013-03-17 18:53:00,44.0,43.0,29.72,WSW,255,2.2,3.1,96,0.00,,,0.04,VWS V13.01,2013-03-17 23:53:00,
2013-03-17 18:58:00,44.0,43.0,29.75,NNW,329,0.0,0.0,96,0.00,,,0.04,VWS V13.01,2013-03-17 23:58:00,
2013-03-17 19:03:00,44.0,43.0,29.75,ENE,70,3.1,3.1,96,0.00,,,0.04,VWS V13.01,2013-03-18 00:03:00,
2013-03-17 19:08:00,44.0,43.0,29.75,ENE,65,2.2,2.2,96,0.00,,,0.04,VWS V13.01,2013-03-18 00:08:00,
2013-03-17 19:13:00,44.0,42.7,29.75,NNE,27,0.0,0.0,95,0.00,,,0.04,VWS V13.01,2013-03-18 00:13:00,
2013-03-17 19:18:00,44.0,43.0,29.75,NNW,346,0.0,0.0,96,0.00,,,0.04,VWS V13.01,2013-03-18 00:18:00,
2013-03-17 19:23:00,44.0,43.0,29.75,NE,37,3.6,3.6,96,0.00,,,0.04,VWS V13.01,2013-03-18 00:23:00,
2013-03-17 19:28:00,44.0,43.0,29.75,NNE,13,0.0,0.0,96,0.00,,,0.04,VWS V13.01,2013-03-18 00:28:00,
2013-03-17 19:33:00,44.2,43.4,29.75,NNW,333,0.0,0.0,97,0.00,,,0.04,VWS V13.01,2013-03-18 00:33:00,
2013-03-17 19:38:00,44.2,43.4,29.75,West,262,2.2,3.1,97,0.00,,,0.04,VWS V13.01,2013-03-18 00:38:00,
2013-03-17 19:43:00,44.2,43.4,29.75,West,261,0.0,0.0,97,0.00,,,0.04,VWS V13.01,2013-03-18 00:43:00,
2013-03-17 19:48:00,44.4,43.6,29.75,ENE,58,2.7,2.7,97,0.00,,,0.04,VWS V13.01,2013-03-18 00:48:00,
2013-03-17 19:53:00,44.2,43.7,29.75,NNE,27,3.1,3.1,98,0.00,,,0.04,VWS V13.01,2013-03-18 00:53:00,
2013-03-17 19:58:00,44.2,44.2,29.75,NE,46,3.1,3.1,100,0.00,,,0.04,VWS V13.01,2013-03-18 00:58:00,
2013-03-17 20:03:00,44.2,44.2,29.75,ENE,59,2.7,2.7,100,0.00,,,0.04,VWS V13.01,2013-03-18 01:03:00,
2013-03-17 20:08:00,44.2,44.2,29.75,NNE,21,3.6,3.6,100,0.00,,,0.04,VWS V13.01,2013-03-18 01:08:00,
2013-03-17 20:13:00,44.0,44.0,29.75,NNE,22,4.0,4.0,100,0.00,,,0.04,VWS V13.01,2013-03-18 01:13:00,
2013-03-17 20:18:00,44.0,44.0,29.75,NE,42,3.6,3.6,100,0.00,,,0.04,VWS V13.01,2013-03-18 01:18:00,
2013-03-17 20:23:00,44.0,44.0,29.75,NE,43,2.7,3.6,100,0.00,,,0.04,VWS V13.01,2013-03-18 01:23:00,
2013-03-17 20:28:00,44.0,44.0,29.75,ENE,76,0.0,2.2,100,0.00,,,0.04,VWS V13.01,2013-03-18 01:28:00,
2013-03-17 20:33:00,44.2,44.2,29.75,NE,50,3.6,3.6,100,0.04,,,0.08,VWS V13.01,2013-03-18 01:33:00,
2013-03-17 20:38:00,44.2,44.2,29.75,NE,36,3.6,3.6,100,0.04,,,0.08,VWS V13.01,2013-03-18 01:38:00,
2013-03-17 20:43:00,44.2,44.2,29.75,NNE,18,0.0,0.0,100,0.04,,,0.08,VWS V13.01,2013-03-18 01:43:00,
2013-03-17 20:48:00,44.2,44.2,29.75,NNE,22,0.0,0.0,100,0.04,,,0.08,VWS V13.01,2013-03-18 01:48:00,
2013-03-17 20:53:00,44.2,44.2,29.75,ENE,57,0.0,0.0,100,0.04,,,0.08,VWS V13.01,2013-03-18 01:53:00,
2013-03-17 20:58:00,44.2,44.2,29.75,NNE,31,0.0,0.0,100,0.04,,,0.08,VWS V13.01,2013-03-18 01:58:00,
2013-03-17 21:03:00,44.2,44.2,29.75,NE,49,0.0,0.0,100,0.04,,,0.08,VWS V13.01,2013-03-18 02:03:00,
2013-03-17 21:08:00,44.2,44.2,29.75,NE,49,0.0,0.0,100,0.04,,,0.08,VWS V13.01,2013-03-18 02:08:00,
2013-03-17 21:13:00,44.2,44.2,29.75,NE,49,0.0,0.0,100,0.04,,,0.08,VWS V13.01,2013-03-18 02:13:00,
2013-03-17 21:18:00,44.2,44.2,29.75,NE,54,0.0,0.0,100,0.04,,,0.08,VWS V13.01,2013-03-18 02:18:00,
2013-03-17 21:23:00,44.2,44.2,29.75,East,92,0.0,0.0,100,0.04,,,0.08,VWS V13.01,2013-03-18 02:23:00,
2013-03-17 21:28:00,44.4,44.4,29.75,ENE,59,0.0,0.0,100,0.04,,,0.08,VWS V13.01,2013-03-18 02:28:00,
2013-03-17 21:33:00,44.4,44.4,29.75,East,96,0.0,0.0,100,0.00,,,0.08,VWS V13.01,2013-03-18 02:33:00,
2013-03-17 21:38:00,44.4,44.4,29.75,East,88,2.7,3.1,100,0.00,,,0.08,VWS V13.01,2013-03-18 02:38:00,
2013-03-17 21:43:00,44.2,44.2,29.75,ENE,57,3.6,3.6,100,0.00,,,0.08,VWS V13.01,2013-03-18 02:43:00,
2013-03-17 21:48:00,44.2,44.2,29.72,ENE,61,3.1,3.1,100,0.00,,,0.08,VWS V13.01,2013-03-18 02:48:00,
2013-03-17 21:53:00,44.4,44.4,29.72,ENE,76,0.0,0.0,100,0.00,,,0.08,VWS V13.01,2013-03-18 02:53:00,
2013-03-17 21:58:00,44.4,44.4,29.72,East,81,0.0,3.1,100,0.00,,,0.08,VWS V13.01,2013-03-18 02:58:00,
2013-03-17 22:03:00,44.2,44.2,29.72,ENE,67,0.0,0.0,100,0.00,,,0.08,VWS V13.01,2013-03-18 03:03:00,
2013-03-17 22:08:00,44.2,44.2,29.72,ENE,67,0.0,0.0,100,0.00,,,0.08,VWS V13.01,2013-03-18 03:08:00,
2013-03-17 22:13:00,44.2,44.2,29.72,NE,36,0.0,2.7,100,0.00,,,0.08,VWS V13.01,2013-03-18 03:13:00,
2013-03-17 22:18:00,44.2,44.2,29.72,NNE,33,0.0,0.0,100,0.00,,,0.08,VWS V13.01,2013-03-18 03:18:00,
2013-03-17 22:23:00,44.4,44.4,29.72,NNE,33,0.0,0.0,100,0.00,,,0.08,VWS V13.01,2013-03-18 03:23:00,
2013-03-17 22:28:00,44.4,44.4,29.72,NNE,33,0.0,0.0,100,0.00,,,0.08,VWS V13.01,2013-03-18 03:28:00,
2013-03-17 22:33:00,44.4,44.4,29.72,NNE,33,0.0,0.0,100,0.00,,,0.08,VWS V13.01,2013-03-18 03:33:00,
2013-03-17 22:38:00,44.4,44.4,29.72,NNE,33,0.0,0.0,100,0.00,,,0.08,VWS V13.01,2013-03-18 03:38:00,
2013-03-17 22:43:00,44.4,44.4,29.72,NNE,33,0.0,0.0,100,0.00,,,0.08,VWS V13.01,2013-03-18 03:43:00,
2013-03-17 22:48:00,44.4,44.4,29.75,NNE,33,0.0,0.0,100,0.00,,,0.08,VWS V13.01,2013-03-18 03:48:00,
2013-03-17 22:53:00,44.4,44.4,29.75,NNE,33,0.0,0.0,100,0.00,,,0.08,VWS V13.01,2013-03-18 03:53:00,
2013-03-17 22:58:00,44.4,44.4,29.75,NNE,33,0.0,0.0,100,0.00,,,0.08,VWS V13.01,2013-03-18 03:58:00,
2013-03-17 23:00:00,44.4,44.4,29.75,NNE,33,0.0,0.0,100,0.00,,,0.08,VWS V13.01,2013-03-18 04:00:00,
2013-03-17 23:05:00,44.6,44.6,29.75,NNE,33,0.0,0.0,100,0.00,,,0.08,VWS V13.01,2013-03-18 04:05:00,
2013-03-17 23:10:00,44.6,44.6,29.75,NNE,33,0.0,0.0,100,0.00,,,0.08,VWS V13.01,2013-03-18 04:10:00,
2013-03-17 23:15:00,44.6,44.6,29.72,NNE,33,0.0,0.0,100,0.00,,,0.08,VWS V13.01,2013-03-18 04:15:00,
2013-03-17 23:20:00,44.6,44.6,29.72,NNE,33,0.0,0.0,100,0.00,,,0.08,VWS V13.01,2013-03-18 04:20:00,
2013-03-17 23:25:00,44.6,44.6,29.72,NNE,33,0.0,0.0,100,0.00,,,0.08,VWS V13.01,2013-03-18 04:25:00,
2013-03-17 23:30:00,44.6,44.6,29.75,NNE,33,0.0,0.0,100,0.00,,,0.08,VWS V13.01,2013-03-18 04:30:00,
2013-03-17 23:35:00,44.6,44.6,29.75,NNE,33,0.0,0.0,100,0.00,,,0.08,VWS V13.01,2013-03-18 04:35:00,
2013-03-17 23:40:00,44.6,44.6,29.75,NNE,33,0.0,0.0,100,0.00,,,0.08,VWS V13.01,2013-03-18 04:40:00,
2013-03-17 23:45:00,44.6,44.6,29.72,NNE,33,0.0,0.0,100,0.00,,,0.08,VWS V13.01,2013-03-18 04:45:00,
2013-03-17 23:50:00,44.8,44.8,29.72,WSW,255,0.0,0.0,100,0.00,,,0.08,VWS V13.01,2013-03-18 04:50:00,
2013-03-17 23:55:00,44.8,44.8,29.72,WSW,255,0.0,0.0,100,0.00,,,0.08,VWS V13.01,2013-03-18 04:55:00,